sensor_id;sensor_type;location;lat;lon;timestamp;P1;durP1;ratioP1;P2;durP2;ratioP2
5718;SDS011;2884;47.734;9.244;2024-01-30T00:00:48;15.00;;;6.10;;
5718;SDS011;2884;47.734;9.244;2024-01-30T00:03:13;7.53;;;6.00;;
5718;SDS011;2884;47.734;9.244;2024-01-30T00:05:39;5.40;;;4.90;;
5718;SDS011;2884;47.734;9.244;2024-01-30T00:08:05;17.13;;;6.80;;
5718;SDS011;2884;47.734;9.244;2024-01-30T00:10:30;12.27;;;5.50;;
5718;SDS011;2884;47.734;9.244;2024-01-30T00:12:56;5.77;;;5.13;;
5718;SDS011;2884;47.734;9.244;2024-01-30T00:15:24;5.10;;;4.70;;
5718;SDS011;2884;47.734;9.244;2024-01-30T00:17:50;5.47;;;4.97;;
5718;SDS011;2884;47.734;9.244;2024-01-30T00:20:17;5.60;;;5.15;;
5718;SDS011;2884;47.734;9.244;2024-01-30T00:22:43;25.10;;;7.03;;
5718;SDS011;2884;47.734;9.244;2024-01-30T00:25:09;5.30;;;4.80;;
5718;SDS011;2884;47.734;9.244;2024-01-30T00:27:34;6.50;;;5.20;;
5718;SDS011;2884;47.734;9.244;2024-01-30T00:30:00;32.00;;;6.60;;
5718;SDS011;2884;47.734;9.244;2024-01-30T00:32:26;15.13;;;5.50;;
5718;SDS011;2884;47.734;9.244;2024-01-30T00:34:51;11.80;;;4.80;;
5718;SDS011;2884;47.734;9.244;2024-01-30T00:37:17;5.90;;;4.67;;
5718;SDS011;2884;47.734;9.244;2024-01-30T00:39:42;39.47;;;6.87;;
5718;SDS011;2884;47.734;9.244;2024-01-30T00:42:08;34.53;;;7.00;;
5718;SDS011;2884;47.734;9.244;2024-01-30T00:44:37;27.07;;;6.00;;
5718;SDS011;2884;47.734;9.244;2024-01-30T00:47:03;6.90;;;5.00;;
5718;SDS011;2884;47.734;9.244;2024-01-30T00:49:30;10.82;;;5.13;;
5718;SDS011;2884;47.734;9.244;2024-01-30T00:51:55;24.67;;;6.50;;
5718;SDS011;2884;47.734;9.244;2024-01-30T00:54:20;35.37;;;6.87;;
5718;SDS011;2884;47.734;9.244;2024-01-30T00:56:46;24.33;;;6.07;;
5718;SDS011;2884;47.734;9.244;2024-01-30T00:59:12;8.83;;;5.63;;
5718;SDS011;2884;47.734;9.244;2024-01-30T01:01:37;37.17;;;7.87;;
5718;SDS011;2884;47.734;9.244;2024-01-30T01:04:03;11.13;;;4.87;;
5718;SDS011;2884;47.734;9.244;2024-01-30T01:06:28;14.33;;;5.33;;
5718;SDS011;2884;47.734;9.244;2024-01-30T01:08:56;36.90;;;6.57;;
5718;SDS011;2884;47.734;9.244;2024-01-30T01:11:22;7.10;;;4.77;;
5718;SDS011;2884;47.734;9.244;2024-01-30T01:13:48;4.90;;;4.47;;
5718;SDS011;2884;47.734;9.244;2024-01-30T01:16:13;5.17;;;4.67;;
5718;SDS011;2884;47.734;9.244;2024-01-30T01:18:39;46.17;;;8.40;;
5718;SDS011;2884;47.734;9.244;2024-01-30T01:21:04;36.27;;;6.17;;
5718;SDS011;2884;47.734;9.244;2024-01-30T01:23:30;4.90;;;4.50;;
5718;SDS011;2884;47.734;9.244;2024-01-30T01:25:55;34.60;;;6.47;;
5718;SDS011;2884;47.734;9.244;2024-01-30T01:28:21;34.87;;;7.20;;
5718;SDS011;2884;47.734;9.244;2024-01-30T01:30:47;10.50;;;4.70;;
5718;SDS011;2884;47.734;9.244;2024-01-30T01:33:13;44.10;;;7.63;;
5718;SDS011;2884;47.734;9.244;2024-01-30T01:35:39;25.52;;;6.18;;
5718;SDS011;2884;47.734;9.244;2024-01-30T01:38:05;4.23;;;3.90;;
5718;SDS011;2884;47.734;9.244;2024-01-30T01:40:30;5.00;;;4.50;;
5718;SDS011;2884;47.734;9.244;2024-01-30T01:42:56;29.03;;;6.90;;
5718;SDS011;2884;47.734;9.244;2024-01-30T01:45:22;41.97;;;6.73;;
5718;SDS011;2884;47.734;9.244;2024-01-30T01:47:49;25.53;;;5.90;;
5718;SDS011;2884;47.734;9.244;2024-01-30T01:50:16;6.75;;;4.75;;
5718;SDS011;2884;47.734;9.244;2024-01-30T01:52:46;9.85;;;4.70;;
5718;SDS011;2884;47.734;9.244;2024-01-30T01:55:13;6.13;;;4.40;;
5718;SDS011;2884;47.734;9.244;2024-01-30T01:57:39;5.13;;;4.63;;
5718;SDS011;2884;47.734;9.244;2024-01-30T02:00:04;9.20;;;4.00;;
5718;SDS011;2884;47.734;9.244;2024-01-30T02:02:31;4.30;;;3.90;;
5718;SDS011;2884;47.734;9.244;2024-01-30T02:05:00;7.93;;;4.25;;
5718;SDS011;2884;47.734;9.244;2024-01-30T02:07:25;13.20;;;4.37;;
5718;SDS011;2884;47.734;9.244;2024-01-30T02:09:53;6.45;;;4.05;;
5718;SDS011;2884;47.734;9.244;2024-01-30T02:12:21;51.80;;;7.30;;
5718;SDS011;2884;47.734;9.244;2024-01-30T02:14:47;11.68;;;3.70;;
5718;SDS011;2884;47.734;9.244;2024-01-30T02:17:14;13.68;;;4.75;;
5718;SDS011;2884;47.734;9.244;2024-01-30T02:19:40;10.18;;;3.90;;
5718;SDS011;2884;47.734;9.244;2024-01-30T02:22:05;6.33;;;4.00;;
5718;SDS011;2884;47.734;9.244;2024-01-30T02:24:31;5.47;;;3.83;;
5718;SDS011;2884;47.734;9.244;2024-01-30T02:26:57;4.13;;;3.63;;
5718;SDS011;2884;47.734;9.244;2024-01-30T02:29:22;12.50;;;3.97;;
5718;SDS011;2884;47.734;9.244;2024-01-30T02:31:48;13.23;;;4.33;;
5718;SDS011;2884;47.734;9.244;2024-01-30T02:34:13;11.93;;;4.00;;
5718;SDS011;2884;47.734;9.244;2024-01-30T02:36:42;7.60;;;3.53;;
5718;SDS011;2884;47.734;9.244;2024-01-30T02:39:09;11.60;;;3.92;;
5718;SDS011;2884;47.734;9.244;2024-01-30T02:41:35;3.97;;;3.57;;
5718;SDS011;2884;47.734;9.244;2024-01-30T02:44:01;5.25;;;3.53;;
5718;SDS011;2884;47.734;9.244;2024-01-30T02:46:27;7.38;;;3.47;;
5718;SDS011;2884;47.734;9.244;2024-01-30T02:48:52;16.50;;;4.83;;
5718;SDS011;2884;47.734;9.244;2024-01-30T02:51:18;3.60;;;3.30;;
5718;SDS011;2884;47.734;9.244;2024-01-30T02:53:46;3.78;;;3.50;;
5718;SDS011;2884;47.734;9.244;2024-01-30T02:56:11;5.33;;;3.60;;
5718;SDS011;2884;47.734;9.244;2024-01-30T02:58:41;7.13;;;3.38;;
5718;SDS011;2884;47.734;9.244;2024-01-30T03:01:07;4.63;;;3.83;;
5718;SDS011;2884;47.734;9.244;2024-01-30T03:03:32;4.00;;;3.70;;
5718;SDS011;2884;47.734;9.244;2024-01-30T03:06:00;4.00;;;3.70;;
5718;SDS011;2884;47.734;9.244;2024-01-30T03:08:26;8.73;;;4.17;;
5718;SDS011;2884;47.734;9.244;2024-01-30T03:10:51;5.77;;;4.23;;
5718;SDS011;2884;47.734;9.244;2024-01-30T03:13:17;5.20;;;4.20;;
5718;SDS011;2884;47.734;9.244;2024-01-30T03:15:42;9.83;;;4.50;;
5718;SDS011;2884;47.734;9.244;2024-01-30T03:18:08;6.27;;;4.30;;
5718;SDS011;2884;47.734;9.244;2024-01-30T03:20:33;5.07;;;4.10;;
5718;SDS011;2884;47.734;9.244;2024-01-30T03:22:59;5.30;;;4.67;;
5718;SDS011;2884;47.734;9.244;2024-01-30T03:25:25;5.33;;;4.37;;
5718;SDS011;2884;47.734;9.244;2024-01-30T03:27:50;5.77;;;4.20;;
5718;SDS011;2884;47.734;9.244;2024-01-30T03:30:16;4.63;;;4.23;;
5718;SDS011;2884;47.734;9.244;2024-01-30T03:32:42;5.00;;;4.50;;
5718;SDS011;2884;47.734;9.244;2024-01-30T03:35:08;5.80;;;4.80;;
5718;SDS011;2884;47.734;9.244;2024-01-30T03:37:34;6.43;;;4.22;;
5718;SDS011;2884;47.734;9.244;2024-01-30T03:39:59;5.50;;;4.20;;
5718;SDS011;2884;47.734;9.244;2024-01-30T03:42:25;5.83;;;4.70;;
5718;SDS011;2884;47.734;9.244;2024-01-30T03:44:50;4.83;;;4.43;;
5718;SDS011;2884;47.734;9.244;2024-01-30T03:47:20;21.27;;;5.22;;
5718;SDS011;2884;47.734;9.244;2024-01-30T03:49:46;4.37;;;3.97;;
5718;SDS011;2884;47.734;9.244;2024-01-30T03:52:12;6.10;;;4.70;;
5718;SDS011;2884;47.734;9.244;2024-01-30T03:54:37;5.47;;;4.40;;
5718;SDS011;2884;47.734;9.244;2024-01-30T03:57:03;11.17;;;4.87;;
5718;SDS011;2884;47.734;9.244;2024-01-30T03:59:29;8.07;;;5.07;;
5718;SDS011;2884;47.734;9.244;2024-01-30T04:01:54;7.17;;;5.40;;
5718;SDS011;2884;47.734;9.244;2024-01-30T04:04:20;8.07;;;4.43;;
5718;SDS011;2884;47.734;9.244;2024-01-30T04:06:47;8.07;;;5.18;;
5718;SDS011;2884;47.734;9.244;2024-01-30T04:09:12;6.90;;;5.40;;
5718;SDS011;2884;47.734;9.244;2024-01-30T04:11:41;8.43;;;5.50;;
5718;SDS011;2884;47.734;9.244;2024-01-30T04:14:08;20.27;;;5.97;;
5718;SDS011;2884;47.734;9.244;2024-01-30T04:16:34;9.60;;;5.68;;
5718;SDS011;2884;47.734;9.244;2024-01-30T04:19:01;22.33;;;6.40;;
5718;SDS011;2884;47.734;9.244;2024-01-30T04:21:27;7.03;;;5.03;;
5718;SDS011;2884;47.734;9.244;2024-01-30T04:23:52;11.50;;;5.60;;
5718;SDS011;2884;47.734;9.244;2024-01-30T04:26:18;7.80;;;6.10;;
5718;SDS011;2884;47.734;9.244;2024-01-30T04:28:44;51.73;;;7.60;;
5718;SDS011;2884;47.734;9.244;2024-01-30T04:31:10;13.30;;;6.03;;
5718;SDS011;2884;47.734;9.244;2024-01-30T04:33:36;8.33;;;5.30;;
5718;SDS011;2884;47.734;9.244;2024-01-30T04:36:02;5.55;;;4.97;;
5718;SDS011;2884;47.734;9.244;2024-01-30T04:38:28;6.68;;;5.55;;
5718;SDS011;2884;47.734;9.244;2024-01-30T04:40:54;7.03;;;6.00;;
5718;SDS011;2884;47.734;9.244;2024-01-30T04:43:20;6.93;;;6.20;;
5718;SDS011;2884;47.734;9.244;2024-01-30T04:45:46;7.43;;;5.80;;
5718;SDS011;2884;47.734;9.244;2024-01-30T04:48:12;25.93;;;6.30;;
5718;SDS011;2884;47.734;9.244;2024-01-30T04:50:38;8.40;;;5.87;;
5718;SDS011;2884;47.734;9.244;2024-01-30T04:53:03;22.67;;;6.93;;
5718;SDS011;2884;47.734;9.244;2024-01-30T04:55:29;6.00;;;4.93;;
5718;SDS011;2884;47.734;9.244;2024-01-30T04:57:54;7.03;;;5.37;;
5718;SDS011;2884;47.734;9.244;2024-01-30T05:00:20;16.43;;;6.27;;
5718;SDS011;2884;47.734;9.244;2024-01-30T05:02:45;5.20;;;4.67;;
5718;SDS011;2884;47.734;9.244;2024-01-30T05:05:11;5.53;;;5.13;;
5718;SDS011;2884;47.734;9.244;2024-01-30T05:07:36;7.23;;;5.97;;
5718;SDS011;2884;47.734;9.244;2024-01-30T05:10:03;6.20;;;5.60;;
5718;SDS011;2884;47.734;9.244;2024-01-30T05:12:29;6.93;;;5.50;;
5718;SDS011;2884;47.734;9.244;2024-01-30T05:14:55;18.27;;;6.80;;
5718;SDS011;2884;47.734;9.244;2024-01-30T05:17:20;33.13;;;7.23;;
5718;SDS011;2884;47.734;9.244;2024-01-30T05:19:46;18.90;;;6.83;;
5718;SDS011;2884;47.734;9.244;2024-01-30T05:22:11;5.10;;;4.53;;
5718;SDS011;2884;47.734;9.244;2024-01-30T05:24:40;6.65;;;5.38;;
5718;SDS011;2884;47.734;9.244;2024-01-30T05:27:07;5.93;;;5.43;;
5718;SDS011;2884;47.734;9.244;2024-01-30T05:29:33;5.97;;;4.90;;
5718;SDS011;2884;47.734;9.244;2024-01-30T05:31:59;7.43;;;5.83;;
5718;SDS011;2884;47.734;9.244;2024-01-30T05:34:24;19.63;;;6.90;;
5718;SDS011;2884;47.734;9.244;2024-01-30T05:36:50;27.13;;;7.40;;
5718;SDS011;2884;47.734;9.244;2024-01-30T05:39:15;53.47;;;9.27;;
5718;SDS011;2884;47.734;9.244;2024-01-30T05:41:41;34.00;;;6.57;;
5718;SDS011;2884;47.734;9.244;2024-01-30T05:44:07;10.83;;;5.37;;
5718;SDS011;2884;47.734;9.244;2024-01-30T05:46:33;12.97;;;5.00;;
5718;SDS011;2884;47.734;9.244;2024-01-30T05:48:58;5.32;;;4.93;;
5718;SDS011;2884;47.734;9.244;2024-01-30T05:51:24;10.13;;;5.20;;
5718;SDS011;2884;47.734;9.244;2024-01-30T05:53:49;5.10;;;4.60;;
5718;SDS011;2884;47.734;9.244;2024-01-30T05:56:15;4.20;;;3.90;;
5718;SDS011;2884;47.734;9.244;2024-01-30T05:58:41;5.23;;;4.73;;
5718;SDS011;2884;47.734;9.244;2024-01-30T06:01:08;5.28;;;4.82;;
5718;SDS011;2884;47.734;9.244;2024-01-30T06:03:34;5.63;;;5.03;;
5718;SDS011;2884;47.734;9.244;2024-01-30T06:05:59;13.70;;;5.23;;
5718;SDS011;2884;47.734;9.244;2024-01-30T06:08:25;4.70;;;4.30;;
5718;SDS011;2884;47.734;9.244;2024-01-30T06:10:50;11.30;;;6.50;;
5718;SDS011;2884;47.734;9.244;2024-01-30T06:13:16;4.40;;;4.10;;
5718;SDS011;2884;47.734;9.244;2024-01-30T06:15:41;4.83;;;4.43;;
5718;SDS011;2884;47.734;9.244;2024-01-30T06:18:07;4.90;;;4.50;;
5718;SDS011;2884;47.734;9.244;2024-01-30T06:20:33;18.37;;;6.10;;
5718;SDS011;2884;47.734;9.244;2024-01-30T06:22:58;5.90;;;5.13;;
5718;SDS011;2884;47.734;9.244;2024-01-30T06:25:24;6.50;;;5.20;;
5718;SDS011;2884;47.734;9.244;2024-01-30T06:27:49;9.97;;;5.30;;
5718;SDS011;2884;47.734;9.244;2024-01-30T06:30:15;9.03;;;5.33;;
5718;SDS011;2884;47.734;9.244;2024-01-30T06:32:40;6.47;;;5.43;;
5718;SDS011;2884;47.734;9.244;2024-01-30T06:35:06;10.87;;;6.10;;
5718;SDS011;2884;47.734;9.244;2024-01-30T06:37:32;8.17;;;5.80;;
5718;SDS011;2884;47.734;9.244;2024-01-30T06:39:57;6.17;;;4.90;;
5718;SDS011;2884;47.734;9.244;2024-01-30T06:42:23;6.50;;;5.53;;
5718;SDS011;2884;47.734;9.244;2024-01-30T06:44:49;10.20;;;6.70;;
5718;SDS011;2884;47.734;9.244;2024-01-30T06:47:14;5.83;;;5.23;;
5718;SDS011;2884;47.734;9.244;2024-01-30T06:49:40;4.97;;;4.57;;
5718;SDS011;2884;47.734;9.244;2024-01-30T06:52:07;7.05;;;5.70;;
5718;SDS011;2884;47.734;9.244;2024-01-30T06:54:33;5.50;;;4.97;;
5718;SDS011;2884;47.734;9.244;2024-01-30T06:56:59;5.03;;;4.53;;
5718;SDS011;2884;47.734;9.244;2024-01-30T06:59:25;12.55;;;5.85;;
5718;SDS011;2884;47.734;9.244;2024-01-30T07:01:50;6.90;;;4.67;;
5718;SDS011;2884;47.734;9.244;2024-01-30T07:04:16;4.67;;;4.27;;
5718;SDS011;2884;47.734;9.244;2024-01-30T07:06:43;5.60;;;4.90;;
5718;SDS011;2884;47.734;9.244;2024-01-30T07:09:08;4.57;;;4.13;;
5718;SDS011;2884;47.734;9.244;2024-01-30T07:11:34;8.73;;;5.13;;
5718;SDS011;2884;47.734;9.244;2024-01-30T07:14:00;8.90;;;5.60;;
5718;SDS011;2884;47.734;9.244;2024-01-30T07:16:25;4.57;;;4.07;;
5718;SDS011;2884;47.734;9.244;2024-01-30T07:18:51;5.97;;;5.03;;
5718;SDS011;2884;47.734;9.244;2024-01-30T07:21:16;8.70;;;5.90;;
5718;SDS011;2884;47.734;9.244;2024-01-30T07:23:42;5.60;;;5.00;;
5718;SDS011;2884;47.734;9.244;2024-01-30T07:26:08;6.93;;;5.17;;
5718;SDS011;2884;47.734;9.244;2024-01-30T07:28:34;6.40;;;5.20;;
5718;SDS011;2884;47.734;9.244;2024-01-30T07:31:00;6.30;;;5.38;;
5718;SDS011;2884;47.734;9.244;2024-01-30T07:33:26;6.60;;;5.15;;
5718;SDS011;2884;47.734;9.244;2024-01-30T07:35:55;5.70;;;5.15;;
5718;SDS011;2884;47.734;9.244;2024-01-30T07:38:23;7.43;;;5.30;;
5718;SDS011;2884;47.734;9.244;2024-01-30T07:40:49;6.30;;;5.70;;
5718;SDS011;2884;47.734;9.244;2024-01-30T07:43:14;6.27;;;5.57;;
5718;SDS011;2884;47.734;9.244;2024-01-30T07:45:40;11.83;;;7.10;;
5718;SDS011;2884;47.734;9.244;2024-01-30T07:48:06;6.95;;;5.43;;
5718;SDS011;2884;47.734;9.244;2024-01-30T07:50:31;5.80;;;5.23;;
5718;SDS011;2884;47.734;9.244;2024-01-30T07:52:58;10.10;;;6.33;;
5718;SDS011;2884;47.734;9.244;2024-01-30T07:55:25;7.30;;;5.78;;
5718;SDS011;2884;47.734;9.244;2024-01-30T07:57:53;9.27;;;5.55;;
5718;SDS011;2884;47.734;9.244;2024-01-30T08:00:20;11.13;;;7.05;;
5718;SDS011;2884;47.734;9.244;2024-01-30T08:02:46;46.38;;;9.10;;
5718;SDS011;2884;47.734;9.244;2024-01-30T08:05:12;14.00;;;7.33;;
5718;SDS011;2884;47.734;9.244;2024-01-30T08:07:40;11.55;;;7.45;;
5718;SDS011;2884;47.734;9.244;2024-01-30T08:10:06;9.90;;;7.32;;
5718;SDS011;2884;47.734;9.244;2024-01-30T08:12:32;8.65;;;6.30;;
5718;SDS011;2884;47.734;9.244;2024-01-30T08:14:58;11.93;;;7.00;;
5718;SDS011;2884;47.734;9.244;2024-01-30T08:17:23;18.63;;;6.87;;
5718;SDS011;2884;47.734;9.244;2024-01-30T08:19:49;9.87;;;6.60;;
5718;SDS011;2884;47.734;9.244;2024-01-30T08:22:14;7.90;;;5.17;;
5718;SDS011;2884;47.734;9.244;2024-01-30T08:24:40;6.43;;;5.50;;
5718;SDS011;2884;47.734;9.244;2024-01-30T08:27:06;5.80;;;5.30;;
5718;SDS011;2884;47.734;9.244;2024-01-30T08:29:34;6.72;;;6.00;;
5718;SDS011;2884;47.734;9.244;2024-01-30T08:32:03;6.20;;;5.70;;
5718;SDS011;2884;47.734;9.244;2024-01-30T08:34:30;6.20;;;5.60;;
5718;SDS011;2884;47.734;9.244;2024-01-30T08:36:55;6.93;;;5.80;;
5718;SDS011;2884;47.734;9.244;2024-01-30T08:39:21;6.50;;;4.83;;
5718;SDS011;2884;47.734;9.244;2024-01-30T08:41:46;5.77;;;5.17;;
5718;SDS011;2884;47.734;9.244;2024-01-30T08:44:12;8.77;;;5.37;;
5718;SDS011;2884;47.734;9.244;2024-01-30T08:46:38;13.87;;;6.23;;
5718;SDS011;2884;47.734;9.244;2024-01-30T08:49:03;6.60;;;5.17;;
5718;SDS011;2884;47.734;9.244;2024-01-30T08:51:30;6.97;;;5.47;;
5718;SDS011;2884;47.734;9.244;2024-01-30T08:53:55;7.15;;;6.05;;
5718;SDS011;2884;47.734;9.244;2024-01-30T08:56:21;8.17;;;6.43;;
5718;SDS011;2884;47.734;9.244;2024-01-30T08:58:47;8.93;;;7.00;;
5718;SDS011;2884;47.734;9.244;2024-01-30T09:01:13;7.40;;;6.60;;
5718;SDS011;2884;47.734;9.244;2024-01-30T09:03:39;7.68;;;6.25;;
5718;SDS011;2884;47.734;9.244;2024-01-30T09:06:09;7.95;;;6.53;;
5718;SDS011;2884;47.734;9.244;2024-01-30T09:08:35;8.82;;;7.10;;
5718;SDS011;2884;47.734;9.244;2024-01-30T09:11:01;8.80;;;7.17;;
5718;SDS011;2884;47.734;9.244;2024-01-30T09:13:27;7.50;;;6.32;;
5718;SDS011;2884;47.734;9.244;2024-01-30T09:15:53;6.47;;;5.53;;
5718;SDS011;2884;47.734;9.244;2024-01-30T09:18:18;10.80;;;6.00;;
5718;SDS011;2884;47.734;9.244;2024-01-30T09:20:44;7.03;;;5.97;;
5718;SDS011;2884;47.734;9.244;2024-01-30T09:23:12;15.27;;;6.03;;
5718;SDS011;2884;47.734;9.244;2024-01-30T09:25:38;5.67;;;5.17;;
5718;SDS011;2884;47.734;9.244;2024-01-30T09:28:04;12.53;;;5.60;;
5718;SDS011;2884;47.734;9.244;2024-01-30T09:30:30;7.90;;;6.00;;
5718;SDS011;2884;47.734;9.244;2024-01-30T09:32:56;5.97;;;5.37;;
5718;SDS011;2884;47.734;9.244;2024-01-30T09:35:23;8.18;;;6.88;;
5718;SDS011;2884;47.734;9.244;2024-01-30T09:37:49;9.43;;;6.53;;
5718;SDS011;2884;47.734;9.244;2024-01-30T09:40:16;7.70;;;6.60;;
5718;SDS011;2884;47.734;9.244;2024-01-30T09:42:44;8.45;;;6.70;;
5718;SDS011;2884;47.734;9.244;2024-01-30T09:45:12;9.82;;;6.20;;
5718;SDS011;2884;47.734;9.244;2024-01-30T09:47:42;7.45;;;6.25;;
5718;SDS011;2884;47.734;9.244;2024-01-30T09:50:09;7.53;;;6.53;;
5718;SDS011;2884;47.734;9.244;2024-01-30T09:52:38;12.73;;;6.75;;
5718;SDS011;2884;47.734;9.244;2024-01-30T09:55:05;12.63;;;7.07;;
5718;SDS011;2884;47.734;9.244;2024-01-30T09:57:31;9.93;;;6.93;;
5718;SDS011;2884;47.734;9.244;2024-01-30T09:59:57;6.77;;;6.07;;
5718;SDS011;2884;47.734;9.244;2024-01-30T10:02:23;8.03;;;6.67;;
5718;SDS011;2884;47.734;9.244;2024-01-30T10:04:49;8.93;;;6.27;;
5718;SDS011;2884;47.734;9.244;2024-01-30T10:07:15;12.88;;;7.95;;
5718;SDS011;2884;47.734;9.244;2024-01-30T10:09:44;8.43;;;6.63;;
5718;SDS011;2884;47.734;9.244;2024-01-30T10:12:10;9.38;;;7.07;;
5718;SDS011;2884;47.734;9.244;2024-01-30T10:14:39;10.90;;;7.53;;
5718;SDS011;2884;47.734;9.244;2024-01-30T10:17:06;8.65;;;6.95;;
5718;SDS011;2884;47.734;9.244;2024-01-30T10:19:35;7.20;;;6.50;;
5718;SDS011;2884;47.734;9.244;2024-01-30T10:22:02;8.95;;;7.20;;
5718;SDS011;2884;47.734;9.244;2024-01-30T10:24:28;9.52;;;6.90;;
5718;SDS011;2884;47.734;9.244;2024-01-30T10:26:55;9.82;;;7.80;;
5718;SDS011;2884;47.734;9.244;2024-01-30T10:29:20;9.10;;;6.50;;
5718;SDS011;2884;47.734;9.244;2024-01-30T10:31:46;10.80;;;7.13;;
5718;SDS011;2884;47.734;9.244;2024-01-30T10:34:12;10.38;;;7.35;;
5718;SDS011;2884;47.734;9.244;2024-01-30T10:36:41;9.90;;;8.23;;
5718;SDS011;2884;47.734;9.244;2024-01-30T10:39:08;12.13;;;7.72;;
5718;SDS011;2884;47.734;9.244;2024-01-30T10:41:35;12.03;;;9.67;;
5718;SDS011;2884;47.734;9.244;2024-01-30T10:44:08;17.95;;;10.80;;
5718;SDS011;2884;47.734;9.244;2024-01-30T10:46:37;13.35;;;9.55;;
5718;SDS011;2884;47.734;9.244;2024-01-30T10:49:03;15.15;;;10.98;;
5718;SDS011;2884;47.734;9.244;2024-01-30T10:51:29;14.57;;;10.75;;
5718;SDS011;2884;47.734;9.244;2024-01-30T10:53:57;17.30;;;11.90;;
5718;SDS011;2884;47.734;9.244;2024-01-30T10:56:23;14.27;;;10.07;;
5718;SDS011;2884;47.734;9.244;2024-01-30T10:58:49;13.45;;;10.35;;
5718;SDS011;2884;47.734;9.244;2024-01-30T11:01:16;12.80;;;9.43;;
5718;SDS011;2884;47.734;9.244;2024-01-30T11:03:43;17.45;;;11.60;;
5718;SDS011;2884;47.734;9.244;2024-01-30T11:06:10;11.70;;;9.27;;
5718;SDS011;2884;47.734;9.244;2024-01-30T11:08:39;15.23;;;9.60;;
5718;SDS011;2884;47.734;9.244;2024-01-30T11:11:07;12.67;;;9.10;;
5718;SDS011;2884;47.734;9.244;2024-01-30T11:13:34;15.93;;;10.98;;
5718;SDS011;2884;47.734;9.244;2024-01-30T11:16:03;25.50;;;12.13;;
5718;SDS011;2884;47.734;9.244;2024-01-30T11:18:30;46.67;;;16.85;;
5718;SDS011;2884;47.734;9.244;2024-01-30T11:20:56;84.00;;;25.33;;
5718;SDS011;2884;47.734;9.244;2024-01-30T11:23:23;21.67;;;11.13;;
5718;SDS011;2884;47.734;9.244;2024-01-30T11:25:49;19.60;;;11.70;;
5718;SDS011;2884;47.734;9.244;2024-01-30T11:28:14;35.00;;;13.40;;
5718;SDS011;2884;47.734;9.244;2024-01-30T11:30:41;18.38;;;10.88;;
5718;SDS011;2884;47.734;9.244;2024-01-30T11:33:11;17.30;;;11.40;;
5718;SDS011;2884;47.734;9.244;2024-01-30T11:35:41;17.77;;;9.95;;
5718;SDS011;2884;47.734;9.244;2024-01-30T11:38:09;13.93;;;10.25;;
5718;SDS011;2884;47.734;9.244;2024-01-30T11:40:36;15.20;;;11.20;;
5718;SDS011;2884;47.734;9.244;2024-01-30T11:43:03;42.72;;;17.38;;
5718;SDS011;2884;47.734;9.244;2024-01-30T11:45:30;21.25;;;13.07;;
5718;SDS011;2884;47.734;9.244;2024-01-30T11:47:56;20.50;;;12.57;;
5718;SDS011;2884;47.734;9.244;2024-01-30T11:50:23;19.88;;;11.02;;
5718;SDS011;2884;47.734;9.244;2024-01-30T11:52:50;19.17;;;11.32;;
5718;SDS011;2884;47.734;9.244;2024-01-30T11:55:15;14.10;;;10.40;;
5718;SDS011;2884;47.734;9.244;2024-01-30T11:57:41;18.57;;;12.13;;
5718;SDS011;2884;47.734;9.244;2024-01-30T12:00:13;22.87;;;11.47;;
5718;SDS011;2884;47.734;9.244;2024-01-30T12:02:40;27.53;;;11.73;;
5718;SDS011;2884;47.734;9.244;2024-01-30T12:05:06;20.70;;;12.03;;
5718;SDS011;2884;47.734;9.244;2024-01-30T12:07:32;15.98;;;11.02;;
5718;SDS011;2884;47.734;9.244;2024-01-30T12:09:58;18.42;;;10.30;;
5718;SDS011;2884;47.734;9.244;2024-01-30T12:12:27;14.57;;;10.30;;
5718;SDS011;2884;47.734;9.244;2024-01-30T12:14:53;12.80;;;9.68;;
5718;SDS011;2884;47.734;9.244;2024-01-30T12:17:30;14.73;;;10.50;;
5718;SDS011;2884;47.734;9.244;2024-01-30T12:20:07;13.57;;;9.68;;
5718;SDS011;2884;47.734;9.244;2024-01-30T12:25:12;11.57;;;9.57;;
5718;SDS011;2884;47.734;9.244;2024-01-30T12:27:39;13.38;;;10.13;;
5718;SDS011;2884;47.734;9.244;2024-01-30T12:30:10;13.52;;;9.95;;
5718;SDS011;2884;47.734;9.244;2024-01-30T12:32:43;10.68;;;8.75;;
5718;SDS011;2884;47.734;9.244;2024-01-30T12:35:09;11.57;;;9.05;;
5718;SDS011;2884;47.734;9.244;2024-01-30T12:37:35;8.90;;;7.75;;
5718;SDS011;2884;47.734;9.244;2024-01-30T12:40:01;9.80;;;8.27;;
5718;SDS011;2884;47.734;9.244;2024-01-30T12:42:27;10.27;;;7.90;;
5718;SDS011;2884;47.734;9.244;2024-01-30T12:44:53;11.00;;;8.13;;
5718;SDS011;2884;47.734;9.244;2024-01-30T12:47:21;11.87;;;9.53;;
5718;SDS011;2884;47.734;9.244;2024-01-30T12:49:47;18.70;;;11.10;;
5718;SDS011;2884;47.734;9.244;2024-01-30T12:52:13;9.47;;;7.87;;
5718;SDS011;2884;47.734;9.244;2024-01-30T12:54:39;9.43;;;8.20;;
5718;SDS011;2884;47.734;9.244;2024-01-30T12:57:05;10.50;;;8.07;;
5718;SDS011;2884;47.734;9.244;2024-01-30T12:59:31;11.93;;;8.87;;
5718;SDS011;2884;47.734;9.244;2024-01-30T13:01:56;9.43;;;8.20;;
5718;SDS011;2884;47.734;9.244;2024-01-30T13:04:23;8.53;;;7.63;;
5718;SDS011;2884;47.734;9.244;2024-01-30T13:06:49;8.93;;;8.03;;
5718;SDS011;2884;47.734;9.244;2024-01-30T13:09:14;9.43;;;7.70;;
5718;SDS011;2884;47.734;9.244;2024-01-30T13:11:41;9.13;;;7.60;;
5718;SDS011;2884;47.734;9.244;2024-01-30T13:14:06;10.60;;;7.57;;
5718;SDS011;2884;47.734;9.244;2024-01-30T13:16:32;9.97;;;8.53;;
5718;SDS011;2884;47.734;9.244;2024-01-30T13:18:57;11.30;;;8.10;;
5718;SDS011;2884;47.734;9.244;2024-01-30T13:21:23;9.63;;;8.27;;
5718;SDS011;2884;47.734;9.244;2024-01-30T13:23:48;11.23;;;7.60;;
5718;SDS011;2884;47.734;9.244;2024-01-30T13:26:18;10.03;;;7.60;;
5718;SDS011;2884;47.734;9.244;2024-01-30T13:28:43;10.90;;;8.57;;
5718;SDS011;2884;47.734;9.244;2024-01-30T13:31:09;9.40;;;8.10;;
5718;SDS011;2884;47.734;9.244;2024-01-30T13:33:35;9.37;;;8.37;;
5718;SDS011;2884;47.734;9.244;2024-01-30T13:36:00;8.57;;;7.40;;
5718;SDS011;2884;47.734;9.244;2024-01-30T13:38:26;9.80;;;8.80;;
5718;SDS011;2884;47.734;9.244;2024-01-30T13:40:51;14.17;;;9.73;;
5718;SDS011;2884;47.734;9.244;2024-01-30T13:43:17;8.93;;;8.03;;
5718;SDS011;2884;47.734;9.244;2024-01-30T13:45:43;10.33;;;7.73;;
5718;SDS011;2884;47.734;9.244;2024-01-30T13:48:08;9.80;;;8.20;;
5718;SDS011;2884;47.734;9.244;2024-01-30T13:50:34;11.40;;;8.10;;
5718;SDS011;2884;47.734;9.244;2024-01-30T13:53:00;9.77;;;7.73;;
5718;SDS011;2884;47.734;9.244;2024-01-30T13:55:25;9.10;;;8.20;;
5718;SDS011;2884;47.734;9.244;2024-01-30T13:57:51;11.07;;;9.30;;
5718;SDS011;2884;47.734;9.244;2024-01-30T14:00:16;10.87;;;8.53;;
5718;SDS011;2884;47.734;9.244;2024-01-30T14:02:42;9.33;;;8.43;;
5718;SDS011;2884;47.734;9.244;2024-01-30T14:05:08;10.63;;;8.70;;
5718;SDS011;2884;47.734;9.244;2024-01-30T14:07:35;8.70;;;7.47;;
5718;SDS011;2884;47.734;9.244;2024-01-30T14:10:01;10.07;;;8.87;;
5718;SDS011;2884;47.734;9.244;2024-01-30T14:12:26;11.03;;;8.83;;
5718;SDS011;2884;47.734;9.244;2024-01-30T14:14:52;9.80;;;8.17;;
5718;SDS011;2884;47.734;9.244;2024-01-30T14:17:17;9.80;;;8.40;;
5718;SDS011;2884;47.734;9.244;2024-01-30T14:19:43;9.93;;;8.57;;
5718;SDS011;2884;47.734;9.244;2024-01-30T14:22:08;10.27;;;9.07;;
5718;SDS011;2884;47.734;9.244;2024-01-30T14:24:34;11.80;;;9.60;;
5718;SDS011;2884;47.734;9.244;2024-01-30T14:26:59;9.47;;;8.20;;
5718;SDS011;2884;47.734;9.244;2024-01-30T14:29:25;14.97;;;8.83;;
5718;SDS011;2884;47.734;9.244;2024-01-30T14:31:51;10.57;;;9.48;;
5718;SDS011;2884;47.734;9.244;2024-01-30T14:34:17;13.57;;;9.43;;
5718;SDS011;2884;47.734;9.244;2024-01-30T14:36:43;11.33;;;9.13;;
5718;SDS011;2884;47.734;9.244;2024-01-30T14:39:09;11.30;;;9.87;;
5718;SDS011;2884;47.734;9.244;2024-01-30T14:41:34;12.67;;;10.30;;
5718;SDS011;2884;47.734;9.244;2024-01-30T14:44:00;11.10;;;9.30;;
5718;SDS011;2884;47.734;9.244;2024-01-30T14:46:25;10.80;;;9.53;;
5718;SDS011;2884;47.734;9.244;2024-01-30T14:48:52;11.63;;;9.27;;
5718;SDS011;2884;47.734;9.244;2024-01-30T14:51:18;13.07;;;10.13;;
5718;SDS011;2884;47.734;9.244;2024-01-30T14:53:43;12.10;;;9.70;;
5718;SDS011;2884;47.734;9.244;2024-01-30T14:56:09;13.50;;;10.60;;
5718;SDS011;2884;47.734;9.244;2024-01-30T14:58:35;13.03;;;10.60;;
5718;SDS011;2884;47.734;9.244;2024-01-30T15:01:01;12.93;;;9.75;;
5718;SDS011;2884;47.734;9.244;2024-01-30T15:03:27;12.93;;;9.77;;